Flight Track Log - Related Links

Times and Time Zones

All times are in EDT time to prevent confusion due to time zone crossing. See the FLG3735 flight status page for this flight to view local times or setup timezone preferences in your user account.

Time Position Orientation Groundspeed Altitude Reporting Facility
EDT Latitude Longitude Course Direction KTS MPH feet Rate Location/Type
Fri 09:48:38 PM 42.2039 -83.3528 82° East 139 160 1,600  Level Cleveland Center
Fri 09:49:51 PM 42.1392 -83.3525 180° South 217 250 4,300 2,328 Climbing Cleveland Center
Fri 09:50:52 PM 42.0725 -83.3497 178° South 271 312 6,800 2,705 Climbing Cleveland Center
Fri 09:51:53 PM 42.0022 -83.3244 165° South 291 335 9,800 2,208 Climbing Cleveland Center
Fri 09:52:00 PM 42.3167 -82.7493 82° East  Level FlightAware Approximate
Fri 09:52:57 PM 42.0011 -83.1958 91° East 349 402 11,400  Level Cleveland Center
Fri 09:53:00 PM 42.3321 -82.5952 82° East  Level FlightAware Approximate
Fri 09:53:57 PM 42.0597 -83.0861 54° Northeast 344 396 12,600  Level Cleveland Center
Fri 09:54:57 PM 42.1228 -82.9656 55° Northeast 361 415 13,000 950 Climbing Cleveland Center
Fri 09:55:57 PM 42.1858 -82.8361 57° Northeast 387 445 14,500 1,650 Climbing Cleveland Center
Fri 09:56:57 PM 42.2239 -82.6944 70° East 400 460 16,300 1,750 Climbing Cleveland Center
Fri 09:57:57 PM 42.2247 -82.5375 90° East 388 447 18,000 1,200 Climbing Cleveland Center
Fri 09:58:57 PM 42.2231 -82.3806 91° East 400 460 18,700 850 Climbing Cleveland Center
Fri 09:59:57 PM 42.2214 -82.2178 91° East 414 476 19,700 950 Climbing Cleveland Center
Fri 10:00:57 PM 42.2233 -82.0664 89° East 438 504 20,600 1,000 Climbing Cleveland Center
Fri 10:01:57 PM 42.2256 -81.9011 89° East 438 504 21,700 900 Climbing Cleveland Center
Fri 10:02:57 PM 42.2231 -81.7328 91° East 443 510 22,400 600 Climbing Cleveland Center
Fri 10:03:57 PM 42.2225 -81.5589 90° East 448 516 22,900 550 Climbing Cleveland Center
Fri 10:04:57 PM 42.2239 -81.3850 89° East 456 525 23,500 650 Climbing Cleveland Center
Fri 10:05:57 PM 42.2208 -81.1944 91° East 465 535 24,200 700 Climbing Cleveland Center
Fri 10:06:57 PM 42.2197 -81.0206 90° East 465 535 24,900 700 Climbing Cleveland Center
Fri 10:07:57 PM 42.2181 -80.8383 91° East 465 535 25,600 750 Climbing Cleveland Center
Fri 10:08:57 PM 42.2164 -80.6644 91° East 465 535 26,400 700 Climbing Cleveland Center
Fri 10:09:57 PM 42.2164 -80.4906 90° East 465 535 27,000 300 Climbing Cleveland Center
Fri 10:10:57 PM 42.2119 -80.3111 92° East 465 535 27,000  Level Cleveland Center
Fri 10:11:57 PM 42.2092 -80.1264 91° East 479 551 27,000  Level Cleveland Center
Fri 10:12:57 PM 42.2064 -79.9608 91° East 484 557 27,000  Level Cleveland Center
Fri 10:13:57 PM 42.2031 -79.7731 91° East 498 573 27,000  Level Cleveland Center
Fri 10:14:57 PM 42.1994 -79.5881 91° East 498 573 27,000  Level Cleveland Center
Fri 10:15:57 PM 42.1956 -79.3978 92° East 498 573 27,000  Level Cleveland Center
Fri 10:16:57 PM 42.1917 -79.2128 92° East 493 567 27,000  Level Cleveland Center
Fri 10:17:57 PM 42.1997 -79.0275 87° East 493 567 27,000  Level Cleveland Center
Fri 10:18:58 PM 42.2242 -78.8475 80° East 493 567 27,000  Level Cleveland Center
Fri 10:19:57 PM 42.2486 -78.6731 79° East 481 554 27,000  Level Cleveland Center
Fri 10:20:57 PM 42.2683 -78.4983 81° East 481 554 27,000  Level Cleveland Center
Fri 10:21:57 PM 42.2922 -78.3208 80° East 481 554 27,000  Level Cleveland Center
Fri 10:22:57 PM 42.3114 -78.1458 82° East 481 554 27,000  Level Cleveland Center
Fri 10:23:57 PM 42.3364 -77.9511 80° East 481 554 27,000  Level Cleveland Center
Fri 10:24:57 PM 42.3572 -77.7761 81° East 481 554 27,000  Level Cleveland Center
Fri 10:25:57 PM 42.3778 -77.5981 81° East 481 554 27,000  Level Cleveland Center
Fri 10:27:28 PM 42.4047 -77.3447 82° East 485 558 27,000  Level Boston Center
Fri 10:28:28 PM 42.4247 -77.1719 81° East 479 551 27,000  Level Boston Center
Fri 10:29:28 PM 42.4447 -76.9906 81° East 479 551 27,000  Level Boston Center
Fri 10:30:28 PM 42.4642 -76.8117 82° East 479 551 27,000  Level Boston Center
Fri 10:31:28 PM 42.4833 -76.6356 82° East 479 551 27,000  Level Boston Center
Fri 10:32:28 PM 42.5022 -76.4564 82° East 479 551 27,000  Level Boston Center
Fri 10:33:28 PM 42.5211 -76.2772 82° East 479 551 27,000  Level Boston Center
Fri 10:34:28 PM 42.5394 -76.0981 82° East 479 551 27,000  Level Boston Center
Fri 10:35:28 PM 42.5575 -75.9214 82° East 479 551 27,000  Level Boston Center
Fri 10:36:28 PM 42.5756 -75.7392 82° East 479 551 27,000 -350 Level Boston Center
Fri 10:37:28 PM 42.5931 -75.5567 83° East 479 551 26,300 -1,650 Descending Boston Center
Fri 10:38:28 PM 42.6103 -75.3797 82° East 479 551 23,700 -2,550 Descending Boston Center
Fri 10:39:28 PM 42.6272 -75.2056 82° East 479 551 21,200 -2,500 Descending Boston Center
Fri 10:40:28 PM 42.6417 -75.0397 83° East 468 539 18,700 -2,200 Descending Boston Center
Fri 10:41:28 PM 42.6556 -74.8764 83° East 444 511 16,800 -2,308 Descending Boston Center
Fri 10:41:46 PM 42.6589 -74.8203 85° East 423 487 15,700 -3,000 Descending Boston Center
Fri 10:42:28 PM 42.6697 -74.7047 83° East 426 490 13,800 -2,700 Descending Boston Center
Fri 10:42:46 PM 42.6747 -74.6569 82° East 400 460 13,000 -2,300 Descending Boston Center
Fri 10:43:28 PM 42.6808 -74.5583 85° East 399 459 11,500 -1,967 Descending Boston Center
Fri 10:43:47 PM 42.6878 -74.5161 77° East 375 432 11,000 -900 Descending Boston Center
Fri 10:44:28 PM 42.6789 -74.4369 99° East 345 397 10,600 -689 Descending Boston Center
Fri 10:44:48 PM 42.6753 -74.4000 98° East 292 336 10,300 -1,200 Descending Boston Center
Fri 10:45:28 PM 42.6597 -74.3261 106° East 308 354 9,400 -1,500 Descending Boston Center
Fri 10:45:48 PM 42.6542 -74.2919 102° East 280 322 8,800 -1,500 Descending Boston Center
Fri 10:46:28 PM 42.6408 -74.2211 104° East 282 325 7,900 -1,377 Descending Boston Center
Fri 10:46:49 PM 42.6328 -74.1897 109° East 280 322 7,400 -1,300 Descending Boston Center
Fri 10:47:28 PM 42.6214 -74.1244 103° East 277 319 6,600 -1,377 Descending Boston Center
Fri 10:47:50 PM 42.6133 -74.0961 111° Southeast 267 307 6,000 -1,400 Descending Boston Center
Fri 10:48:28 PM 42.6019 -74.0308 103° East 270 311 5,200 -1,300 Descending Boston Center
Fri 10:48:50 PM 42.6022 -74.0000 89° East 248 285 4,700 -1,333 Descending Boston Center
Fri 10:49:40 PM 42.6033 -73.9239 89° East 249 287 3,600 -1,200 Descending Boston Center
Fri 10:50:40 PM 42.6169 -73.8450 77° East 222 255 2,500 -650 Descending Boston Center
Fri 10:51:40 PM 42.6383 -73.7864 64° Northeast 197 227 2,300 -200 Descending Boston Center

Login

Don't have an account? Register now (free) for customized features, flight alerts, and more!